Latest  Newer  Older  Last 2 hours slideshow  Last 24 hours slideshow  Refresh every 5 minutes 
Current image  Latest image  Rain/snow radar  Cloud coverage sat images 

All time is UTC (add 2 hours to UTC in wintertime, 3 hours to UTC in DST for Latvia local time)

2020/09/30 03:20 EVRA 300320Z 35002KT 0500 0400 R18/0550D FG SCT003 05/05 Q1018 NOSIG
2020/09/30 03:20 EVLA 300320Z AUTO 06002KT 0500 R06/0600N R24/0600D FG FEW002/// 04/04 Q1018
2020/09/30 03:20 EVVA 300320Z AUTO 00000KT 0400 FG VV001 05/05 Q1019
2020/09/30 03:20 EYKA 300320Z 02005KT 350V070 CAVOK 09/07 Q1015
2020/09/30 03:20 EYPA 300320Z 06006KT CAVOK 08/07 Q1017
2020/09/30 03:20 EYSA 300320Z 01005KT 7000 NSC 06/06 Q1017 WHT TEMPO 8000 BLU
2020/09/30 03:20 EYVI 300320Z 03006KT 9999 SCT004 BKN054 09/08 Q1014 TEMPO BKN005
2020/09/30 02:50 EEKA 300250Z 00000KT 0500 FG VV002 12/12 Q1019
2020/09/30 03:08 EEKE 300308Z AUTO 01004KT 0900NDV R17/1900D R35/P2000N FG SCT003 05/05 Q1019
2020/09/29 13:20 EEPU 291320Z 21002KT 9999 OVC023 15/15 Q1019
2020/09/30 03:20 EETN 300320Z 10004KT 9999 OVC003 12/12 Q1020
2020/09/30 02:50 EETU 300250Z AUTO 05003KT 010V090 0150 R26/0600N FG VV001 12/11 Q1019
   RIGA AIRPORT     EVRA               56 55N  023 58E   10   X     T          6 LV
   LIEPAJA INTL     EVLA        26406  56 31N  021 06E    4   X                8 LV
   VENTPILS         EVVA               57 21N  021 33E    6   X                8 LV
   KAUNAS           EYKA               54 54N  023 55E   77   X     T          6 LT
   PALANGA INTL     EYPA               55 55N  021 03E   10   X                6 LT
   SIAULIAI INTL    EYSA               55 54N  023 24E  135   X     T          6 LT
   VILNIUS INTL     EYVI        26730  54 38N  025 17E  197   X     T          6 LT
   KARDLA           EEKA        26116  58 59N  022 50E    4   X                8 EE
   KURESSAARE       EEKE               58 14N  022 31E    4   X                8 EE
   PARNU            EEPU               58 25N  024 28E   14   X                8 EE
   TALLINN          EETN        26038  59 24N  024 49E   40   X     T          8 EE
   TARTU            EETU               58 19N  026 41E   67   X                8 EE